Time;durP1;ratioP1;P1;durP2;ratioP2;P2;SDS_P1;SDS_P2;PMS_P1;PMS_P2;Temp;Humidity;BMP_temperature;BMP_pressure;BME280_temperature;BME280_humidity;BME280_pressure;Samples;Min_cycle;Max_cycle;Signal;HPM_P1;HPM_P2
2023/10/28 00:01:15;;;;;;;32.13;20.50;;;10.60;99.90;;;;;;5085448;28;20451;-30
2023/10/28 00:03:41;;;;;;;30.30;18.60;;;10.50;99.90;;;;;;5083270;28;20041;-28
2023/10/28 00:06:07;;;;;;;28.98;19.90;;;10.50;99.90;;;;;;5090194;28;20039;-29
2023/10/28 00:08:34;;;;;;;33.20;19.70;;;10.40;99.90;;;;;;5083943;28;20033;-29
2023/10/28 00:11:00;;;;;;;32.38;20.15;;;10.40;99.90;;;;;;5087839;28;20063;-29
2023/10/28 00:13:26;;;;;;;30.83;18.88;;;10.30;99.90;;;;;;5084422;28;20479;-29
2023/10/28 00:15:52;;;;;;;38.42;21.38;;;10.20;99.90;;;;;;5080858;28;20036;-29
2023/10/28 00:18:17;;;;;;;43.95;21.73;;;10.10;99.90;;;;;;5083933;28;20037;-30
2023/10/28 00:20:44;;;;;;;31.50;19.02;;;10.10;99.90;;;;;;5082032;28;20047;-30
2023/10/28 00:23:11;;;;;;;40.10;21.52;;;10.10;99.90;;;;;;5085548;28;20054;-29
2023/10/28 00:25:37;;;;;;;29.02;19.42;;;10.10;99.90;;;;;;5083667;28;20483;-29
2023/10/28 00:28:03;;;;;;;34.38;21.42;;;10.10;99.90;;;;;;5082106;28;20101;-29
2023/10/28 00:30:30;;;;;;;40.60;22.98;;;10.10;99.90;;;;;;5079106;28;20041;-29
2023/10/28 00:32:59;;;;;;;38.42;21.95;;;10.10;99.90;;;;;;5086563;28;20028;-30
2023/10/28 00:35:25;;;;;;;36.35;22.63;;;10.20;99.90;;;;;;5076498;28;20040;-31
2023/10/28 00:37:51;;;;;;;35.15;21.67;;;10.20;99.90;;;;;;5093772;28;20456;-29
2023/10/28 00:40:17;;;;;;;43.90;24.45;;;10.20;99.90;;;;;;5084481;28;20126;-29
2023/10/28 00:42:45;;;;;;;37.05;22.42;;;10.20;99.90;;;;;;5080436;28;20572;-29
2023/10/28 00:45:13;;;;;;;36.15;23.02;;;10.20;99.90;;;;;;5083882;28;20536;-29
2023/10/28 00:47:41;;;;;;;36.67;21.73;;;10.30;99.90;;;;;;5074666;28;20072;-29
2023/10/28 00:50:09;;;;;;;34.72;21.50;;;10.20;99.90;;;;;;5081772;28;20126;-29
2023/10/28 00:52:54;;;;;;;40.58;23.25;;;10.20;99.90;;;;;;5076098;28;20036;-29
2023/10/28 00:55:22;;;;;;;37.78;22.40;;;10.20;99.90;;;;;;5081175;28;20043;-31
2023/10/28 00:57:48;;;;;;;36.33;22.83;;;10.20;99.90;;;;;;5081684;28;20115;-29
2023/10/28 01:00:17;;;;;;;34.28;22.13;;;10.20;99.90;;;;;;5080443;28;20183;-29
2023/10/28 01:02:43;;;;;;;39.58;23.98;;;10.20;99.90;;;;;;5083811;28;20033;-29
2023/10/28 01:05:11;;;;;;;35.40;22.45;;;10.10;99.90;;;;;;5082100;28;20092;-29
2023/10/28 01:07:43;;;;;;;29.67;21.05;;;10.10;99.90;;;;;;5064009;28;20127;-29
2023/10/28 01:10:09;;;;;;;32.10;20.00;;;10.10;99.90;;;;;;5077329;28;20466;-28
2023/10/28 01:12:35;;;;;;;30.13;20.05;;;10.00;99.90;;;;;;5074591;28;20098;-30
2023/10/28 01:15:02;;;;;;;26.80;18.45;;;10.00;99.90;;;;;;5072574;28;20120;-31
2023/10/28 01:17:29;;;;;;;33.80;20.45;;;10.00;99.90;;;;;;5072085;28;20044;-31
2023/10/28 01:19:56;;;;;;;30.80;18.98;;;9.90;99.90;;;;;;5072559;28;20042;-32
2023/10/28 01:22:26;;;;;;;27.40;18.33;;;9.90;99.90;;;;;;5072458;28;20434;-31
2023/10/28 01:24:52;;;;;;;26.13;16.80;;;9.80;99.90;;;;;;5072439;28;20115;-29
2023/10/28 01:27:19;;;;;;;28.95;18.63;;;9.80;99.90;;;;;;5072301;28;20124;-32
2023/10/28 01:29:46;;;;;;;29.75;18.75;;;9.80;99.90;;;;;;5071853;28;20040;-30
2023/10/28 01:32:12;;;;;;;30.27;19.35;;;9.80;99.90;;;;;;5072305;28;20041;-29
2023/10/28 01:34:49;;;;;;;28.98;18.75;;;9.70;99.90;;;;;;5071811;28;20424;-30
2023/10/28 01:37:16;;;;;;;29.83;19.08;;;9.70;99.90;;;;;;5072180;28;20041;-29
2023/10/28 01:39:47;;;;;;;30.38;18.75;;;9.70;99.90;;;;;;5071627;28;20051;-30
2023/10/28 01:42:13;;;;;;;28.00;18.55;;;9.60;99.90;;;;;;5072145;28;20040;-30
2023/10/28 01:44:40;;;;;;;29.30;17.52;;;9.60;99.90;;;;;;5071543;28;20037;-30
2023/10/28 01:47:08;;;;;;;29.85;17.13;;;9.60;99.90;;;;;;5071801;28;20040;-30
2023/10/28 01:49:38;;;;;;;25.13;16.20;;;9.50;99.90;;;;;;5076128;28;20033;-30
2023/10/28 01:52:07;;;;;;;25.98;17.25;;;9.50;99.90;;;;;;5078480;28;20036;-30
2023/10/28 01:54:34;;;;;;;23.35;16.50;;;9.40;99.90;;;;;;5078533;28;20506;-30
2023/10/28 01:57:05;;;;;;;23.50;16.60;;;9.40;99.90;;;;;;5078721;28;20505;-30
2023/10/28 01:59:32;;;;;;;29.52;17.85;;;9.40;99.90;;;;;;5078554;28;20475;-32
2023/10/28 02:02:00;;;;;;;21.27;16.15;;;9.40;99.90;;;;;;5078446;28;20505;-31
2023/10/28 02:04:25;;;;;;;24.77;16.25;;;9.30;99.90;;;;;;5078507;28;20102;-30
2023/10/28 02:06:51;;;;;;;23.13;16.92;;;9.30;99.90;;;;;;5078735;28;20032;-32
2023/10/28 02:09:17;;;;;;;21.48;15.43;;;9.20;99.90;;;;;;5078183;28;20124;-29
2023/10/28 02:11:43;;;;;;;21.83;15.27;;;9.20;99.90;;;;;;5078492;28;20119;-29
2023/10/28 02:14:09;;;;;;;31.90;16.73;;;9.20;99.90;;;;;;5078461;28;20047;-30
2023/10/28 02:16:37;;;;;;;24.17;16.50;;;9.20;99.90;;;;;;5078317;28;20399;-30
2023/10/28 02:19:03;;;;;;;22.73;15.60;;;9.20;99.90;;;;;;5078412;28;20072;-31
2023/10/28 02:21:29;;;;;;;25.85;16.40;;;9.10;99.90;;;;;;5078877;28;20515;-29
2023/10/28 02:23:54;;;;;;;28.35;16.85;;;9.10;99.90;;;;;;5078448;28;20043;-31
2023/10/28 02:26:20;;;;;;;22.92;16.08;;;9.10;99.90;;;;;;5078368;28;20462;-30
2023/10/28 02:28:46;;;;;;;23.85;15.73;;;9.10;99.90;;;;;;5077789;28;20124;-30
2023/10/28 02:31:11;;;;;;;22.92;15.25;;;9.00;99.90;;;;;;5078391;28;20119;-28
2023/10/28 02:33:37;;;;;;;20.52;15.07;;;9.00;99.90;;;;;;5077922;28;20185;-29
2023/10/28 02:36:08;;;;;;;23.27;15.18;;;9.00;99.90;;;;;;5078367;28;20051;-30
2023/10/28 02:38:34;;;;;;;25.17;15.32;;;9.00;99.90;;;;;;5077901;28;20162;-30
2023/10/28 02:41:00;;;;;;;23.63;14.75;;;9.00;99.90;;;;;;5078029;28;20097;-29
2023/10/28 02:43:26;;;;;;;24.05;15.05;;;9.00;99.90;;;;;;5078089;28;20539;-30
2023/10/28 02:45:52;;;;;;;26.42;16.17;;;8.90;99.90;;;;;;5078158;28;20044;-31
2023/10/28 02:48:18;;;;;;;23.42;15.25;;;9.00;99.90;;;;;;5078091;28;20169;-30
2023/10/28 02:50:43;;;;;;;24.63;15.48;;;8.90;99.90;;;;;;5078209;28;20526;-30
2023/10/28 02:53:09;;;;;;;21.00;15.30;;;8.90;99.90;;;;;;5078132;28;20480;-31
2023/10/28 02:55:38;;;;;;;26.27;16.23;;;9.00;99.90;;;;;;5077683;28;20075;-30
2023/10/28 02:58:04;;;;;;;27.48;15.63;;;9.00;99.90;;;;;;5078025;28;20037;-29
2023/10/28 03:00:30;;;;;;;23.80;15.68;;;9.00;99.90;;;;;;5075510;28;20491;-29
2023/10/28 03:02:57;;;;;;;24.52;15.88;;;9.00;99.90;;;;;;5074639;28;20046;-28
2023/10/28 03:05:24;;;;;;;20.95;14.80;;;9.00;99.90;;;;;;5074736;28;20083;-33
2023/10/28 03:07:50;;;;;;;26.25;15.50;;;9.00;99.90;;;;;;5074555;28;20103;-29
2023/10/28 03:10:16;;;;;;;22.80;15.80;;;9.10;99.90;;;;;;5074369;28;20036;-31
2023/10/28 03:12:42;;;;;;;25.38;16.70;;;9.10;99.90;;;;;;5074445;28;20041;-30
2023/10/28 03:15:10;;;;;;;21.70;16.05;;;9.10;99.90;;;;;;5074636;28;20097;-31
2023/10/28 03:17:39;;;;;;;24.67;15.95;;;9.10;99.90;;;;;;5073083;28;20086;-31
2023/10/28 03:20:09;;;;;;;25.85;17.13;;;9.20;99.90;;;;;;5074307;28;20477;-29
2023/10/28 03:22:36;;;;;;;23.63;15.80;;;9.20;99.90;;;;;;5073298;28;20067;-31
2023/10/28 03:25:03;;;;;;;22.67;15.30;;;9.30;99.90;;;;;;5074506;28;20037;-29
2023/10/28 03:27:29;;;;;;;25.90;15.45;;;9.30;99.90;;;;;;5073927;28;20117;-30
2023/10/28 03:29:55;;;;;;;27.48;15.43;;;9.30;99.90;;;;;;5074181;28;20040;-31
2023/10/28 03:32:21;;;;;;;28.80;16.73;;;9.40;99.90;;;;;;5074076;28;20044;-30
2023/10/28 03:34:47;;;;;;;26.05;14.50;;;9.40;99.90;;;;;;5074319;28;20069;-30
2023/10/28 03:37:12;;;;;;;28.02;16.45;;;9.40;99.90;;;;;;5072556;28;20044;-30
2023/10/28 03:39:38;;;;;;;24.23;16.00;;;9.50;99.90;;;;;;5073794;28;20521;-30
2023/10/28 03:42:07;;;;;;;26.55;15.63;;;9.50;99.90;;;;;;5074135;28;20040;-29
2023/10/28 03:44:33;;;;;;;25.38;16.40;;;9.50;99.90;;;;;;5074123;28;20565;-30
2023/10/28 03:46:58;;;;;;;23.38;14.32;;;9.60;99.90;;;;;;5073904;28;20066;-30
2023/10/28 03:49:24;;;;;;;27.20;15.82;;;9.60;99.90;;;;;;5073602;28;20086;-31
2023/10/28 03:51:50;;;;;;;22.25;13.88;;;9.60;99.90;;;;;;5073741;28;20032;-28
2023/10/28 03:54:15;;;;;;;23.13;14.95;;;9.60;99.90;;;;;;5073812;28;20123;-28
2023/10/28 03:56:41;;;;;;;20.15;13.27;;;9.60;99.90;;;;;;5073863;28;20124;-31
2023/10/28 03:59:07;;;;;;;24.52;15.25;;;9.60;99.90;;;;;;5073391;28;20462;-31
2023/10/28 04:01:33;;;;;;;21.75;14.52;;;9.60;99.90;;;;;;5073557;28;20086;-30
2023/10/28 04:03:58;;;;;;;23.45;14.75;;;9.60;99.90;;;;;;5073518;28;20094;-30
2023/10/28 04:06:25;;;;;;;22.52;14.85;;;9.70;99.90;;;;;;5073634;28;20555;-29
2023/10/28 04:08:51;;;;;;;18.30;13.52;;;9.70;99.90;;;;;;5073494;28;20048;-32
2023/10/28 04:11:16;;;;;;;29.48;15.40;;;9.70;99.90;;;;;;5073444;28;20098;-30
2023/10/28 04:13:42;;;;;;;24.83;14.82;;;9.70;99.90;;;;;;5073295;28;20086;-32
2023/10/28 04:16:08;;;;;;;22.98;14.30;;;9.80;99.90;;;;;;5072349;28;20063;-29
2023/10/28 04:18:34;;;;;;;24.60;14.93;;;9.80;99.90;;;;;;5073512;28;20040;-30
2023/10/28 04:21:00;;;;;;;24.48;14.60;;;9.80;99.90;;;;;;5073491;28;20118;-30
2023/10/28 04:23:26;;;;;;;22.40;14.77;;;9.80;99.90;;;;;;5073421;28;20496;-29
2023/10/28 04:25:52;;;;;;;24.65;14.63;;;9.80;99.90;;;;;;5073270;28;20076;-30
2023/10/28 04:28:18;;;;;;;26.92;14.57;;;9.90;99.90;;;;;;5073259;28;20062;-29
2023/10/28 04:30:53;;;;;;;24.90;14.65;;;9.90;99.90;;;;;;5073180;28;20543;-30
2023/10/28 04:33:19;;;;;;;24.13;15.30;;;9.90;99.90;;;;;;5073174;28;20076;-31
2023/10/28 04:35:44;;;;;;;27.42;15.02;;;9.90;99.90;;;;;;5072691;28;20080;-29
2023/10/28 04:38:10;;;;;;;24.80;13.98;;;9.90;99.90;;;;;;5072977;28;20444;-30
2023/10/28 04:40:37;;;;;;;23.85;14.25;;;9.90;99.90;;;;;;5072753;28;20036;-30
2023/10/28 04:43:04;;;;;;;23.80;13.63;;;9.90;99.90;;;;;;5072632;28;20124;-29
2023/10/28 04:45:31;;;;;;;20.80;13.70;;;10.00;99.90;;;;;;5072870;28;20051;-30
2023/10/28 04:47:56;;;;;;;23.92;13.95;;;10.00;99.90;;;;;;5072501;28;20040;-29
2023/10/28 04:50:22;;;;;;;23.75;13.77;;;9.90;99.90;;;;;;5072888;28;20041;-29
2023/10/28 04:52:48;;;;;;;23.63;14.18;;;10.00;99.90;;;;;;5072773;28;20398;-31
2023/10/28 04:55:15;;;;;;;21.90;13.40;;;10.00;99.90;;;;;;5072743;28;20043;-31
2023/10/28 04:57:41;;;;;;;23.55;13.65;;;10.00;99.90;;;;;;5077762;28;20441;-30
2023/10/28 05:00:08;;;;;;;24.08;14.05;;;10.00;99.90;;;;;;5081791;28;20410;-31
2023/10/28 05:02:34;;;;;;;22.52;13.57;;;10.00;99.90;;;;;;5076604;28;20151;-28
2023/10/28 05:05:03;;;;;;;24.40;13.98;;;10.10;99.90;;;;;;5071048;28;20072;-30
2023/10/28 05:07:29;;;;;;;21.98;13.02;;;10.10;99.90;;;;;;5070987;28;20052;-31
2023/10/28 05:09:55;;;;;;;20.65;13.40;;;10.10;99.90;;;;;;5072422;28;20040;-31
2023/10/28 05:12:21;;;;;;;19.90;13.60;;;10.10;99.90;;;;;;5072591;28;20155;-30
2023/10/28 05:14:50;;;;;;;20.98;11.68;;;10.10;99.90;;;;;;5072392;28;20402;-29
2023/10/28 05:17:17;;;;;;;25.42;13.30;;;10.10;99.90;;;;;;5070906;28;20075;-30
2023/10/28 05:19:43;;;;;;;22.38;13.30;;;10.20;99.90;;;;;;5072335;28;20493;-28
2023/10/28 05:22:08;;;;;;;22.88;12.00;;;10.20;99.90;;;;;;5072429;28;20063;-29
2023/10/28 05:24:34;;;;;;;20.23;11.48;;;10.20;99.90;;;;;;5071850;28;20047;-30
2023/10/28 05:27:00;;;;;;;24.23;12.63;;;10.20;99.90;;;;;;5072334;28;20040;-29
2023/10/28 05:29:25;;;;;;;17.77;11.38;;;10.20;99.90;;;;;;5072186;28;20090;-31
2023/10/28 05:31:56;;;;;;;19.75;11.95;;;10.20;99.90;;;;;;5072486;28;20029;-29
2023/10/28 05:34:24;;;;;;;19.23;12.25;;;10.20;99.90;;;;;;5071894;28;20033;-30
2023/10/28 05:36:50;;;;;;;18.58;10.57;;;10.30;99.90;;;;;;5072176;28;20033;-29
2023/10/28 05:39:16;;;;;;;17.00;10.50;;;10.30;99.90;;;;;;5071802;28;20048;-29
2023/10/28 05:41:42;;;;;;;17.77;11.43;;;10.30;99.90;;;;;;5072300;28;20082;-31
2023/10/28 05:44:08;;;;;;;16.65;10.57;;;10.30;99.90;;;;;;5072101;28;20044;-28
2023/10/28 05:46:33;;;;;;;19.23;10.80;;;10.30;99.90;;;;;;5071668;28;20400;-29
2023/10/28 05:49:00;;;;;;;16.30;10.98;;;10.30;99.90;;;;;;5072048;28;20043;-28
2023/10/28 05:51:26;;;;;;;15.45;9.93;;;10.30;99.90;;;;;;5070838;28;20132;-29
2023/10/28 05:53:52;;;;;;;18.65;10.15;;;10.30;99.90;;;;;;5072083;28;20107;-29
2023/10/28 05:56:17;;;;;;;16.30;9.75;;;10.30;99.90;;;;;;5070488;28;20113;-30
2023/10/28 05:58:44;;;;;;;16.98;9.85;;;10.30;99.90;;;;;;5070350;28;20093;-31
2023/10/28 06:01:13;;;;;;;13.75;9.70;;;10.30;99.90;;;;;;5071170;28;20449;-31
2023/10/28 06:03:38;;;;;;;16.30;9.63;;;10.30;99.90;;;;;;5052679;28;20055;-30
2023/10/28 06:06:05;;;;;;;12.70;8.38;;;10.30;99.90;;;;;;5068846;28;20037;-31
2023/10/28 06:08:31;;;;;;;16.63;10.43;;;10.30;99.90;;;;;;5068402;28;20478;-31
2023/10/28 06:10:57;;;;;;;14.65;8.82;;;10.30;99.90;;;;;;5068590;28;20036;-29
2023/10/28 06:13:23;;;;;;;17.50;9.23;;;10.30;99.90;;;;;;5069949;28;20044;-29
2023/10/28 06:15:49;;;;;;;15.55;9.23;;;10.30;99.90;;;;;;5070220;28;20051;-32
2023/10/28 06:18:15;;;;;;;15.20;9.05;;;10.30;99.90;;;;;;5069981;28;20296;-31
2023/10/28 06:20:40;;;;;;;11.73;8.32;;;10.20;99.90;;;;;;5070358;28;20040;-30
2023/10/28 06:23:06;;;;;;;16.23;8.48;;;10.20;99.90;;;;;;5069985;28;20083;-29
2023/10/28 06:25:34;;;;;;;14.10;7.95;;;10.20;99.90;;;;;;5069581;28;20071;-30
2023/10/28 06:28:02;;;;;;;17.55;8.27;;;10.20;99.90;;;;;;5068417;28;20057;-30
2023/10/28 06:30:27;;;;;;;11.45;7.93;;;10.10;99.90;;;;;;5070012;28;20044;-28
2023/10/28 06:32:53;;;;;;;11.77;7.30;;;10.10;99.90;;;;;;5069909;28;20442;-29
2023/10/28 06:35:19;;;;;;;10.20;7.30;;;10.10;99.90;;;;;;5069997;28;20380;-29
2023/10/28 06:37:46;;;;;;;12.25;7.30;;;10.00;99.90;;;;;;5073585;28;20091;-31
2023/10/28 06:40:12;;;;;;;11.90;8.10;;;10.00;99.90;;;;;;5073701;28;20041;-30
2023/10/28 06:42:38;;;;;;;9.55;7.35;;;10.00;99.90;;;;;;5073625;28;20082;-31
2023/10/28 06:45:09;;;;;;;11.25;6.97;;;10.00;99.90;;;;;;5073234;28;20048;-31
2023/10/28 06:47:35;;;;;;;8.82;7.50;;;10.00;99.90;;;;;;5092991;28;20040;-31
2023/10/28 06:50:06;;;;;;;14.77;7.82;;;10.00;99.90;;;;;;5095525;28;20035;-29
2023/10/28 06:52:33;;;;;;;10.88;7.40;;;9.90;99.90;;;;;;5114211;28;20105;-29
2023/10/28 06:54:59;;;;;;;12.00;7.15;;;9.90;99.90;;;;;;5112655;28;20462;-31
2023/10/28 06:57:26;;;;;;;12.55;7.97;;;10.00;99.90;;;;;;5111845;28;20086;-30
2023/10/28 06:59:52;;;;;;;13.63;8.50;;;10.00;99.90;;;;;;5112476;28;20093;-29
2023/10/28 07:02:18;;;;;;;11.93;8.38;;;10.00;99.90;;;;;;5112385;28;20588;-30
2023/10/28 07:04:43;;;;;;;12.00;7.47;;;10.00;99.90;;;;;;5112173;28;20529;-31
2023/10/28 07:07:13;;;;;;;10.55;6.40;;;10.00;99.90;;;;;;5110889;28;20039;-30
2023/10/28 07:09:39;;;;;;;11.18;6.15;;;10.00;99.90;;;;;;5112932;27;20039;-29
2023/10/28 07:12:05;;;;;;;9.82;7.07;;;10.00;99.90;;;;;;5114887;28;20042;-29
2023/10/28 07:14:31;;;;;;;10.55;6.45;;;10.10;99.90;;;;;;5113017;28;20049;-30
2023/10/28 07:16:59;;;;;;;6.95;5.30;;;10.10;99.90;;;;;;5112438;28;20031;-31
2023/10/28 07:19:25;;;;;;;8.80;6.43;;;10.10;99.90;;;;;;5111383;28;20383;-30
2023/10/28 07:21:50;;;;;;;8.45;5.80;;;10.10;99.90;;;;;;5112100;28;20035;-32
2023/10/28 07:24:16;;;;;;;9.40;6.53;;;10.20;99.90;;;;;;5109055;28;20135;-30
2023/10/28 07:26:42;;;;;;;6.95;5.93;;;10.20;99.90;;;;;;5109545;28;20048;-29
2023/10/28 07:29:08;;;;;;;8.25;5.22;;;10.20;99.90;;;;;;5107923;28;20437;-29
2023/10/28 07:31:38;;;;;;;7.45;5.43;;;10.20;99.90;;;;;;5109353;28;20047;-29
2023/10/28 07:34:05;;;;;;;10.57;5.80;;;10.30;99.90;;;;;;5112333;28;20042;-29
2023/10/28 07:36:32;;;;;;;9.20;5.85;;;10.30;99.90;;;;;;5113958;28;20427;-31
2023/10/28 07:39:01;;;;;;;6.63;5.40;;;10.30;99.90;;;;;;5112238;28;20058;-31
2023/10/28 07:41:29;;;;;;;6.20;5.03;;;10.30;99.90;;;;;;5113686;28;20055;-30
2023/10/28 07:43:58;;;;;;;8.13;5.28;;;10.40;99.90;;;;;;5113732;28;20371;-30
2023/10/28 07:46:29;;;;;;;6.53;4.95;;;10.40;99.90;;;;;;5113333;28;20493;-29
2023/10/28 07:48:56;;;;;;;6.35;4.75;;;10.50;99.90;;;;;;5113051;28;20046;-29
2023/10/28 07:51:21;;;;;;;7.88;5.05;;;10.50;99.90;;;;;;5114150;28;20075;-30
2023/10/28 07:53:49;;;;;;;10.07;5.53;;;10.50;99.90;;;;;;5113459;28;20106;-29
2023/10/28 07:56:16;;;;;;;8.07;4.43;;;10.50;99.90;;;;;;5113385;28;20500;-30
2023/10/28 07:58:42;;;;;;;10.23;5.05;;;10.60;99.90;;;;;;5113235;28;20044;-30
2023/10/28 08:01:19;;;;;;;8.65;5.72;;;10.60;99.90;;;;;;5113464;28;20081;-30
2023/10/28 08:03:48;;;;;;;11.90;7.32;;;10.60;99.90;;;;;;5113224;28;20114;-29
2023/10/28 08:06:14;;;;;;;9.40;7.57;;;10.70;99.90;;;;;;5112086;28;20054;-30
2023/10/28 08:08:40;;;;;;;8.65;6.55;;;10.70;99.90;;;;;;5113817;28;20036;-33
2023/10/28 08:11:08;;;;;;;9.77;6.22;;;10.80;99.90;;;;;;5113797;28;20039;-29
2023/10/28 08:13:34;;;;;;;8.10;6.07;;;10.80;99.90;;;;;;5114182;28;20441;-31
2023/10/28 08:16:01;;;;;;;12.20;7.78;;;10.80;99.90;;;;;;5113743;28;20036;-31
2023/10/28 08:18:30;;;;;;;18.77;12.23;;;10.80;99.90;;;;;;5114067;28;20124;-30
2023/10/28 08:20:56;;;;;;;8.15;5.93;;;10.90;99.90;;;;;;5113933;28;20040;-31
2023/10/28 08:23:22;;;;;;;14.32;7.88;;;10.90;99.90;;;;;;5112399;28;20054;-31
2023/10/28 08:25:48;;;;;;;13.65;7.28;;;10.90;99.90;;;;;;5113863;28;20039;-31
2023/10/28 08:28:13;;;;;;;8.00;6.03;;;11.00;99.90;;;;;;5113484;28;20035;-31
2023/10/28 08:30:39;;;;;;;10.30;5.75;;;11.10;99.90;;;;;;5114875;28;20032;-30
2023/10/28 08:33:04;;;;;;;10.93;7.30;;;11.10;99.90;;;;;;5113877;27;20039;-29
2023/10/28 08:35:30;;;;;;;11.32;8.52;;;11.20;99.90;;;;;;5113741;28;20043;-29
2023/10/28 08:37:56;;;;;;;10.90;8.55;;;11.20;99.90;;;;;;5113339;28;20486;-31
2023/10/28 08:40:22;;;;;;;14.57;7.80;;;11.30;99.90;;;;;;5112572;28;20565;-32
2023/10/28 08:42:48;;;;;;;13.25;8.57;;;11.30;99.90;;;;;;5113468;28;20518;-29
2023/10/28 08:45:16;;;;;;;10.30;6.07;;;11.30;99.90;;;;;;5113121;28;20043;-30
2023/10/28 08:47:44;;;;;;;9.77;5.22;;;11.30;99.90;;;;;;5113126;28;20115;-29
2023/10/28 08:50:17;;;;;;;7.63;5.88;;;11.40;99.90;;;;;;5113147;28;20510;-32
2023/10/28 08:52:47;;;;;;;9.50;5.72;;;11.40;99.90;;;;;;5112092;28;20042;-30
2023/10/28 08:55:13;;;;;;;6.10;4.95;;;11.40;99.90;;;;;;5110722;28;20050;-30
2023/10/28 08:57:45;;;;;;;9.70;5.90;;;11.40;99.90;;;;;;5110214;28;20058;-29
2023/10/28 09:00:14;;;;;;;9.93;6.47;;;11.40;99.90;;;;;;5112722;28;20039;-30
2023/10/28 09:02:45;;;;;;;7.90;6.80;;;11.40;99.90;;;;;;5113041;28;20122;-30
2023/10/28 09:05:12;;;;;;;10.50;5.75;;;11.40;99.90;;;;;;5112947;28;20040;-30
2023/10/28 09:07:38;;;;;;;7.97;5.50;;;11.50;99.90;;;;;;5113140;28;20047;-30
2023/10/28 09:10:04;;;;;;;7.93;6.10;;;11.50;99.90;;;;;;5112820;28;20099;-30
2023/10/28 09:12:33;;;;;;;9.25;5.30;;;11.40;99.90;;;;;;5112818;28;20043;-30
2023/10/28 09:14:59;;;;;;;9.50;5.32;;;11.50;99.90;;;;;;5113024;28;20062;-29
2023/10/28 09:17:24;;;;;;;9.80;4.82;;;11.50;99.90;;;;;;5112620;28;20509;-30
2023/10/28 09:19:53;;;;;;;12.48;7.20;;;11.50;99.90;;;;;;5113261;28;20474;-31
2023/10/28 09:22:20;;;;;;;7.80;5.50;;;11.50;99.90;;;;;;5112902;28;20397;-31
2023/10/28 09:24:47;;;;;;;7.70;4.85;;;11.60;99.90;;;;;;5112752;28;20122;-30
2023/10/28 09:27:13;;;;;;;8.95;6.20;;;11.60;99.90;;;;;;5112890;28;20398;-29
2023/10/28 09:29:41;;;;;;;9.27;5.80;;;11.60;99.90;;;;;;5112767;28;20040;-30
2023/10/28 09:32:08;;;;;;;9.27;6.43;;;11.60;99.90;;;;;;5111761;28;20509;-29
2023/10/28 09:34:38;;;;;;;11.10;5.15;;;11.60;99.90;;;;;;5112339;28;20100;-30
2023/10/28 09:37:05;;;;;;;9.50;4.47;;;11.60;99.90;;;;;;5111394;28;20115;-31
2023/10/28 09:39:33;;;;;;;7.22;6.53;;;11.60;99.90;;;;;;5112578;28;20028;-29
2023/10/28 09:42:00;;;;;;;9.57;6.15;;;11.60;99.90;;;;;;5112685;28;20475;-31
2023/10/28 09:44:26;;;;;;;11.45;7.50;;;11.70;99.90;;;;;;5112193;28;20042;-32
2023/10/28 09:47:00;;;;;;;10.48;5.95;;;11.70;99.90;;;;;;5112660;28;20114;-30
2023/10/28 09:49:30;;;;;;;9.05;4.53;;;11.70;99.90;;;;;;5112510;28;20397;-32
2023/10/28 09:52:05;;;;;;;7.40;4.20;;;11.70;99.90;;;;;;5111987;28;20054;-30
2023/10/28 09:54:35;;;;;;;4.97;3.85;;;11.80;99.90;;;;;;5112516;28;20058;-31
2023/10/28 09:57:01;;;;;;;9.05;5.20;;;11.80;99.90;;;;;;5112544;28;20118;-29
2023/10/28 09:59:33;;;;;;;9.05;5.38;;;11.80;99.90;;;;;;5112461;28;20039;-31
2023/10/28 10:02:32;;;;;;;5.70;4.38;;;11.80;99.90;;;;;;5112513;28;20035;-29
2023/10/28 10:05:26;;;;;;;8.30;4.63;;;11.80;99.90;;;;;;5112433;28;20387;-29
2023/10/28 10:07:52;;;;;;;4.78;3.78;;;11.90;99.90;;;;;;5110945;28;20039;-29
2023/10/28 10:10:20;;;;;;;6.82;4.70;;;11.90;99.90;;;;;;5112779;28;20050;-30
2023/10/28 10:12:50;;;;;;;7.65;4.68;;;11.90;99.90;;;;;;5115090;28;20061;-30
2023/10/28 10:15:22;;;;;;;7.00;5.20;;;11.90;99.90;;;;;;5114673;28;20043;-30
2023/10/28 10:18:18;;;;;;;11.50;5.80;;;11.90;99.90;;;;;;5114878;28;20442;-28
2023/10/28 10:20:44;;;;;;;7.65;5.25;;;12.00;99.90;;;;;;5114220;28;20062;-31
2023/10/28 10:23:10;;;;;;;11.13;6.45;;;12.10;99.90;;;;;;5113086;28;20038;-29
2023/10/28 10:25:39;;;;;;;8.85;4.95;;;12.20;99.90;;;;;;5113761;28;20153;-30
2023/10/28 10:28:19;;;;;;;7.93;3.90;;;12.20;99.90;;;;;;5114469;28;20157;-31
2023/10/28 10:30:45;;;;;;;6.80;3.78;;;12.20;99.90;;;;;;5112553;28;20039;-30
2023/10/28 10:33:12;;;;;;;7.78;4.97;;;12.30;99.90;;;;;;5114190;28;20032;-30
2023/10/28 10:35:38;;;;;;;11.40;6.28;;;12.30;99.90;;;;;;5116165;28;20044;-29
2023/10/28 10:38:10;;;;;;;8.80;5.07;;;12.30;99.90;;;;;;5115950;28;20127;-31
2023/10/28 10:40:49;;;;;;;7.53;4.20;;;12.40;99.90;;;;;;5115591;28;20032;-30
2023/10/28 10:43:20;;;;;;;8.25;4.00;;;12.30;99.90;;;;;;5116109;28;20066;-30
2023/10/28 10:45:46;;;;;;;8.45;3.85;;;12.40;99.90;;;;;;5115619;28;20054;-33
2023/10/28 10:48:13;;;;;;;6.03;3.58;;;12.40;99.90;;;;;;5115813;28;20043;-32
2023/10/28 10:50:41;;;;;;;7.38;3.88;;;12.40;99.90;;;;;;5115611;28;20035;-31
2023/10/28 10:53:07;;;;;;;5.80;3.65;;;12.40;99.90;;;;;;5115445;28;20046;-30
2023/10/28 10:55:33;;;;;;;9.32;4.20;;;12.50;99.90;;;;;;5113836;28;20039;-29
2023/10/28 10:57:59;;;;;;;7.47;3.67;;;12.50;99.90;;;;;;5111945;28;20045;-30
2023/10/28 11:00:26;;;;;;;5.28;3.95;;;12.60;99.90;;;;;;5112075;28;20456;-29
2023/10/28 11:02:57;;;;;;;6.28;3.92;;;12.60;99.90;;;;;;5112166;28;20127;-30
2023/10/28 11:05:23;;;;;;;8.18;4.07;;;12.70;99.90;;;;;;5111904;28;20088;-31
2023/10/28 11:07:49;;;;;;;6.38;3.85;;;12.70;99.90;;;;;;5112109;28;20084;-32
2023/10/28 11:10:14;;;;;;;4.95;3.95;;;12.70;99.90;;;;;;5112459;28;20035;-30
2023/10/28 11:12:41;;;;;;;5.43;3.80;;;12.70;99.90;;;;;;5112342;28;20043;-32
2023/10/28 11:15:10;;;;;;;7.57;3.75;;;12.70;99.90;;;;;;5112615;28;20047;-30
2023/10/28 11:17:36;;;;;;;5.97;3.97;;;12.70;99.90;;;;;;5112447;28;20091;-28
2023/10/28 11:20:03;;;;;;;4.80;3.50;;;12.60;99.90;;;;;;5113801;28;20138;-30
2023/10/28 11:22:30;;;;;;;7.80;3.88;;;12.70;99.90;;;;;;5111986;28;20059;-31
2023/10/28 11:24:57;;;;;;;6.82;3.55;;;12.70;99.90;;;;;;5112798;28;20394;-31
2023/10/28 11:27:26;;;;;;;5.68;3.70;;;12.70;99.90;;;;;;5112854;28;20194;-31
2023/10/28 11:29:56;;;;;;;5.55;4.20;;;12.80;99.90;;;;;;5112776;28;20115;-31
2023/10/28 11:32:22;;;;;;;11.80;7.50;;;12.70;99.90;;;;;;5112294;28;20084;-30
2023/10/28 11:34:49;;;;;;;7.32;4.13;;;12.70;99.90;;;;;;5112139;28;20052;-31
2023/10/28 11:37:14;;;;;;;10.52;5.30;;;12.70;99.90;;;;;;5112140;28;20044;-31
2023/10/28 11:39:44;;;;;;;6.47;4.25;;;12.80;99.90;;;;;;5112159;28;20384;-29
2023/10/28 11:42:16;;;;;;;11.25;5.93;;;12.80;99.90;;;;;;5110756;28;20063;-29
2023/10/28 11:44:49;;;;;;;9.50;4.43;;;13.00;99.90;;;;;;5111720;28;20051;-29
2023/10/28 11:47:15;;;;;;;6.88;4.72;;;13.10;99.90;;;;;;5111774;27;20039;-30
2023/10/28 11:49:41;;;;;;;4.15;3.40;;;13.30;99.90;;;;;;5111759;28;20084;-31
2023/10/28 11:52:09;;;;;;;5.35;3.60;;;13.40;99.90;;;;;;5111204;28;20521;-30
2023/10/28 11:54:35;;;;;;;7.00;4.45;;;13.40;99.90;;;;;;5110442;27;20128;-30
2023/10/28 11:57:00;;;;;;;6.53;3.85;;;13.40;99.90;;;;;;5110497;28;20142;-29
2023/10/28 11:59:26;;;;;;;7.53;3.08;;;13.40;99.90;;;;;;5110995;28;20042;-31
2023/10/28 12:01:53;;;;;;;4.82;3.30;;;13.40;99.90;;;;;;5108674;28;20169;-31
2023/10/28 12:04:21;;;;;;;6.53;4.13;;;13.40;99.90;;;;;;5108510;28;20390;-30
2023/10/28 12:06:47;;;;;;;6.43;3.80;;;13.40;99.90;;;;;;5109214;28;20043;-30
2023/10/28 12:09:14;;;;;;;3.70;2.67;;;13.30;99.90;;;;;;5109444;28;20164;-30
2023/10/28 12:11:41;;;;;;;6.22;3.50;;;13.20;99.90;;;;;;5109496;28;20535;-30
2023/10/28 12:14:07;;;;;;;6.97;2.90;;;13.20;99.90;;;;;;5110465;27;20462;-32
2023/10/28 12:16:40;;;;;;;7.63;3.85;;;13.10;99.90;;;;;;5110378;28;20039;-30
2023/10/28 12:19:06;;;;;;;6.88;3.30;;;13.10;99.90;;;;;;5110332;28;20044;-31
2023/10/28 12:21:35;;;;;;;4.72;3.03;;;13.10;99.90;;;;;;5110457;28;20054;-31
2023/10/28 12:24:03;;;;;;;6.60;3.00;;;13.20;99.90;;;;;;5110276;28;20044;-30
2023/10/28 12:26:29;;;;;;;5.45;3.30;;;13.20;99.90;;;;;;5109637;28;20146;-29
2023/10/28 12:28:56;;;;;;;5.30;3.55;;;13.30;99.90;;;;;;5109376;28;20497;-30
2023/10/28 12:31:23;;;;;;;19.63;6.75;;;13.30;99.90;;;;;;5109674;28;20046;-30
2023/10/28 12:33:50;;;;;;;4.05;3.40;;;13.40;99.90;;;;;;5109596;28;20622;-31
2023/10/28 12:36:19;;;;;;;5.05;3.28;;;13.50;99.90;;;;;;5108903;28;20100;-30
2023/10/28 12:38:46;;;;;;;4.68;3.30;;;13.50;99.90;;;;;;5108791;28;20051;-30